createdAt,value
2023-03-30T00:01:10.864Z,9.20
2023-03-30T00:03:43.136Z,9.20
2023-03-30T00:06:11.449Z,9.20
2023-03-30T00:08:38.757Z,9.20
2023-03-30T00:11:13.768Z,9.30
2023-03-30T00:13:41.599Z,9.20
2023-03-30T00:16:12.759Z,9.20
2023-03-30T00:18:40.675Z,9.20
2023-03-30T00:21:10.201Z,9.10
2023-03-30T00:23:38.326Z,9.10
2023-03-30T00:26:05.702Z,9.00
2023-03-30T00:28:32.579Z,9.00
2023-03-30T00:30:59.880Z,9.00
2023-03-30T00:33:41.431Z,9.00
2023-03-30T00:36:11.492Z,8.90
2023-03-30T00:38:38.458Z,8.90
2023-03-30T00:41:05.596Z,8.90
2023-03-30T00:43:33.688Z,8.80
2023-03-30T00:46:01.276Z,8.80
2023-03-30T00:48:36.790Z,8.80
2023-03-30T00:51:09.765Z,8.80
2023-03-30T00:53:47.945Z,8.70
2023-03-30T00:56:19.428Z,8.70
2023-03-30T00:58:46.894Z,8.70
2023-03-30T01:01:18.933Z,8.70
2023-03-30T01:03:48.174Z,8.80
2023-03-30T01:06:22.086Z,8.70
2023-03-30T01:08:49.865Z,8.70
2023-03-30T01:11:16.791Z,8.60
2023-03-30T01:13:47.853Z,8.60
2023-03-30T01:16:40.968Z,8.70
2023-03-30T01:19:11.568Z,8.80
2023-03-30T01:22:16.610Z,8.80
2023-03-30T01:24:58.682Z,8.80
2023-03-30T01:27:50.165Z,8.80
2023-03-30T01:30:42.782Z,8.90
2023-03-30T01:33:51.180Z,9.00
2023-03-30T01:36:31.255Z,9.00
2023-03-30T01:39:09.572Z,9.00
2023-03-30T01:41:42.372Z,9.00
2023-03-30T01:44:34.269Z,9.00
2023-03-30T01:47:17.660Z,9.20
2023-03-30T01:49:55.078Z,9.40
2023-03-30T01:52:32.118Z,9.70
2023-03-30T01:55:04.868Z,10.00
2023-03-30T01:57:41.297Z,10.10
2023-03-30T02:00:17.818Z,10.30
2023-03-30T02:02:52.762Z,10.40
2023-03-30T02:05:21.020Z,10.40
2023-03-30T02:07:53.080Z,10.40
2023-03-30T02:10:24.582Z,10.30
2023-03-30T02:12:52.877Z,10.30
2023-03-30T02:15:20.630Z,10.50
2023-03-30T02:17:48.421Z,10.50
2023-03-30T02:20:17.711Z,10.50
2023-03-30T02:22:45.905Z,10.40
2023-03-30T02:25:14.034Z,10.40
2023-03-30T02:27:42.188Z,10.40
2023-03-30T02:30:09.982Z,10.30
2023-03-30T02:32:47.381Z,10.30
2023-03-30T02:35:43.357Z,10.30
2023-03-30T02:38:32.341Z,10.20
2023-03-30T02:41:29.376Z,10.10
2023-03-30T02:44:05.123Z,10.10
2023-03-30T02:46:55.410Z,10.30
2023-03-30T02:49:55.432Z,10.80
2023-03-30T02:52:47.382Z,10.80
2023-03-30T02:55:22.639Z,11.00
2023-03-30T02:58:08.137Z,11.10
2023-03-30T03:00:52.361Z,11.30
2023-03-30T03:03:25.469Z,11.60
2023-03-30T03:05:54.051Z,11.80
2023-03-30T03:08:25.228Z,12.00
2023-03-30T03:10:52.296Z,12.20
2023-03-30T03:13:20.974Z,12.40
2023-03-30T03:15:49.589Z,12.40
2023-03-30T03:18:16.760Z,12.50
2023-03-30T03:20:43.603Z,12.60
2023-03-30T03:23:10.521Z,12.70
2023-03-30T03:25:37.370Z,12.80
2023-03-30T03:28:04.537Z,12.90
2023-03-30T03:30:31.732Z,13.00
2023-03-30T03:32:58.647Z,12.90
2023-03-30T03:35:25.668Z,12.90
2023-03-30T03:37:52.478Z,12.90
2023-03-30T03:40:19.306Z,12.80
2023-03-30T03:42:46.166Z,12.90
2023-03-30T03:45:13.013Z,12.90
2023-03-30T03:47:40.287Z,12.90
2023-03-30T03:50:09.882Z,12.80
2023-03-30T03:52:37.219Z,12.70
2023-03-30T03:55:05.232Z,12.60
2023-03-30T03:57:32.039Z,12.60
2023-03-30T03:59:59.923Z,12.70
2023-03-30T04:02:28.117Z,12.80
2023-03-30T04:04:55.736Z,12.80
2023-03-30T04:07:25.484Z,12.70
2023-03-30T04:09:52.438Z,12.60
2023-03-30T04:12:20.316Z,12.60
2023-03-30T04:14:47.139Z,12.50
2023-03-30T04:17:14.854Z,12.60
2023-03-30T04:19:42.062Z,12.60
2023-03-30T04:22:09.063Z,12.70
2023-03-30T04:24:35.897Z,12.60
2023-03-30T04:27:03.399Z,12.60
2023-03-30T04:29:30.862Z,12.50
2023-03-30T04:32:02.741Z,12.40
2023-03-30T04:34:31.087Z,12.40
2023-03-30T04:36:58.188Z,12.40
2023-03-30T04:39:30.341Z,12.40
2023-03-30T04:41:57.425Z,12.40
2023-03-30T04:44:24.216Z,12.40
2023-03-30T04:46:51.123Z,12.50
2023-03-30T04:49:17.901Z,12.50
2023-03-30T04:51:44.832Z,12.50
2023-03-30T04:54:11.710Z,12.50
2023-03-30T04:56:38.545Z,12.40
2023-03-30T04:59:05.767Z,12.40
2023-03-30T05:01:32.736Z,12.40
2023-03-30T05:03:59.543Z,12.30
2023-03-30T05:06:27.239Z,12.40
2023-03-30T05:08:54.122Z,12.40
2023-03-30T05:11:21.114Z,12.30
2023-03-30T05:13:50.645Z,12.40
2023-03-30T05:16:17.471Z,12.30
2023-03-30T05:18:44.658Z,12.30
2023-03-30T05:21:11.721Z,12.20
2023-03-30T05:23:39.831Z,12.20
2023-03-30T05:26:07.439Z,12.20
2023-03-30T05:28:34.790Z,12.20
2023-03-30T05:33:28.866Z,12.10
2023-03-30T05:35:55.745Z,12.10
2023-03-30T05:38:22.774Z,12.10
2023-03-30T05:40:53.707Z,12.10
2023-03-30T05:43:21.113Z,12.10
2023-03-30T05:45:48.351Z,12.20
2023-03-30T05:48:15.286Z,12.20
2023-03-30T05:50:42.955Z,12.20
2023-03-30T05:53:10.350Z,12.30
2023-03-30T05:55:37.566Z,12.30
2023-03-30T05:58:04.398Z,12.20
2023-03-30T06:00:33.422Z,12.30
2023-03-30T06:03:00.816Z,12.30
2023-03-30T06:05:27.800Z,12.30
2023-03-30T06:07:54.580Z,12.30
2023-03-30T06:10:21.437Z,12.30
2023-03-30T06:12:48.242Z,12.30
2023-03-30T06:15:15.359Z,12.30
2023-03-30T06:17:42.816Z,12.30
2023-03-30T06:20:11.658Z,12.30
2023-03-30T06:22:41.610Z,12.40
2023-03-30T06:25:09.778Z,12.40
2023-03-30T06:27:37.326Z,12.30
2023-03-30T06:30:04.743Z,12.40
2023-03-30T06:32:31.771Z,12.40
2023-03-30T06:34:58.623Z,12.40
2023-03-30T06:37:25.603Z,12.40
2023-03-30T06:39:52.788Z,12.50
2023-03-30T06:42:19.647Z,12.50
2023-03-30T06:44:48.128Z,12.50
2023-03-30T06:47:16.713Z,12.50
2023-03-30T06:49:43.604Z,12.60
2023-03-30T06:52:11.487Z,12.60
2023-03-30T06:54:38.517Z,12.70
2023-03-30T06:57:05.490Z,12.70
2023-03-30T06:59:34.575Z,12.70
2023-03-30T07:02:03.247Z,12.80
2023-03-30T07:04:30.039Z,12.80
2023-03-30T07:06:57.887Z,13.00
2023-03-30T07:09:25.833Z,13.10
2023-03-30T07:11:55.080Z,13.30
2023-03-30T07:14:23.288Z,13.30
2023-03-30T07:16:51.308Z,13.30
2023-03-30T07:19:18.389Z,13.40
2023-03-30T07:21:45.557Z,13.30
2023-03-30T07:24:12.877Z,13.40
2023-03-30T07:26:39.910Z,13.50
2023-03-30T07:29:07.488Z,13.50
2023-03-30T07:31:37.800Z,13.60
2023-03-30T07:34:04.973Z,13.80
2023-03-30T07:36:31.878Z,14.10
2023-03-30T07:38:59.836Z,14.30
2023-03-30T07:41:26.792Z,14.30
2023-03-30T07:43:53.607Z,14.30
2023-03-30T07:46:20.661Z,14.40
2023-03-30T07:48:47.524Z,14.70
2023-03-30T07:51:14.668Z,14.80
2023-03-30T07:53:42.141Z,15.00
2023-03-30T07:56:09.212Z,15.50
2023-03-30T07:58:37.265Z,16.20
2023-03-30T08:01:05.126Z,16.40
2023-03-30T08:03:33.102Z,16.10
2023-03-30T08:06:04.490Z,15.80
2023-03-30T08:08:35.121Z,15.50
2023-03-30T08:11:02.463Z,15.40
2023-03-30T08:13:29.589Z,15.50
2023-03-30T08:15:56.515Z,15.60
2023-03-30T08:18:23.323Z,15.80
2023-03-30T08:20:52.611Z,15.90
2023-03-30T08:23:20.451Z,16.10
2023-03-30T08:25:51.410Z,16.00
2023-03-30T08:28:20.015Z,15.90
2023-03-30T08:30:47.311Z,15.70
2023-03-30T08:33:16.001Z,15.50
2023-03-30T08:35:47.681Z,15.30
2023-03-30T08:38:19.162Z,15.10
2023-03-30T08:40:49.379Z,15.10
2023-03-30T08:43:23.822Z,15.10
2023-03-30T08:45:52.345Z,15.00
2023-03-30T08:48:22.930Z,14.90
2023-03-30T08:51:06.187Z,15.00
2023-03-30T08:53:34.375Z,15.10
2023-03-30T08:56:01.177Z,15.20
2023-03-30T08:59:19.237Z,15.10
2023-03-30T09:01:51.536Z,15.20
2023-03-30T09:04:27.064Z,15.40
2023-03-30T09:07:04.171Z,15.70
2023-03-30T09:09:35.094Z,15.70
2023-03-30T09:12:19.580Z,15.60
2023-03-30T09:14:53.957Z,15.40
2023-03-30T09:17:48.267Z,15.30
2023-03-30T09:20:24.498Z,15.10
2023-03-30T09:22:53.469Z,15.20
2023-03-30T09:25:48.124Z,15.90
2023-03-30T09:28:54.763Z,17.00
2023-03-30T09:31:44.379Z,18.10
2023-03-30T09:34:27.525Z,18.50
2023-03-30T09:37:18.743Z,19.10
2023-03-30T09:39:47.058Z,18.90
2023-03-30T09:42:34.087Z,19.20
2023-03-30T09:45:28.073Z,20.10
2023-03-30T09:47:55.016Z,20.10
2023-03-30T09:50:26.820Z,21.30
2023-03-30T09:53:00.450Z,20.80
2023-03-30T09:55:31.263Z,19.60
2023-03-30T09:58:30.465Z,18.40
2023-03-30T10:01:12.839Z,17.50
2023-03-30T10:03:42.047Z,16.90
2023-03-30T10:06:17.387Z,16.40
2023-03-30T10:08:52.231Z,15.70
2023-03-30T10:11:37.563Z,15.00
2023-03-30T10:14:05.458Z,14.60
2023-03-30T10:16:33.378Z,14.40
2023-03-30T10:19:18.533Z,14.30
2023-03-30T10:21:48.584Z,14.00
2023-03-30T10:24:15.398Z,14.10
2023-03-30T10:26:46.500Z,14.30
2023-03-30T10:29:23.215Z,14.30
2023-03-30T10:32:02.229Z,14.60
2023-03-30T10:34:36.324Z,14.60
2023-03-30T10:37:06.935Z,13.80
2023-03-30T10:39:35.237Z,12.20
2023-03-30T10:42:05.163Z,11.00
2023-03-30T10:44:41.465Z,10.30
2023-03-30T10:47:43.630Z,10.00
2023-03-30T10:50:41.876Z,10.00
2023-03-30T10:53:39.109Z,10.10
2023-03-30T10:56:38.967Z,10.20
2023-03-30T10:59:12.026Z,10.40
2023-03-30T11:01:48.279Z,10.50
2023-03-30T11:04:36.296Z,10.60
2023-03-30T11:07:10.698Z,10.60
2023-03-30T11:09:41.417Z,10.60
2023-03-30T11:12:16.706Z,10.60
2023-03-30T11:14:49.337Z,10.50
2023-03-30T11:17:48.827Z,10.40
2023-03-30T11:20:28.350Z,10.30
2023-03-30T11:23:23.337Z,10.30
2023-03-30T11:26:12.747Z,10.30
2023-03-30T11:28:42.680Z,10.40
2023-03-30T11:31:28.247Z,10.50
2023-03-30T11:34:13.194Z,10.70
2023-03-30T11:36:44.213Z,10.90
2023-03-30T11:39:31.627Z,11.20
2023-03-30T11:42:26.773Z,12.20
2023-03-30T11:44:57.796Z,14.90
2023-03-30T11:47:33.060Z,17.40
2023-03-30T11:50:30.269Z,18.50
2023-03-30T11:53:30.806Z,18.50
2023-03-30T11:56:39.673Z,17.90
2023-03-30T11:59:28.232Z,16.00
2023-03-30T12:02:17.147Z,14.50
2023-03-30T12:04:58.202Z,13.70
2023-03-30T12:07:31.199Z,13.40
2023-03-30T12:10:08.408Z,13.10
2023-03-30T12:12:39.455Z,12.90
2023-03-30T12:15:26.461Z,12.60
2023-03-30T12:17:55.780Z,12.50
2023-03-30T12:20:34.687Z,12.40
2023-03-30T12:23:13.938Z,12.20
2023-03-30T12:25:43.537Z,12.10
2023-03-30T12:28:11.227Z,12.20
2023-03-30T12:31:00.181Z,12.40
2023-03-30T12:33:35.037Z,12.60
2023-03-30T12:36:04.638Z,12.70
2023-03-30T12:38:46.811Z,12.70
2023-03-30T12:41:20.731Z,12.80
2023-03-30T12:44:09.140Z,12.90
2023-03-30T12:46:42.084Z,13.20
2023-03-30T12:49:21.973Z,13.30
2023-03-30T12:52:09.686Z,13.30
2023-03-30T12:54:49.522Z,13.20
2023-03-30T12:57:47.196Z,13.30
2023-03-30T13:00:36.538Z,13.60
2023-03-30T13:03:33.222Z,13.90
2023-03-30T13:06:01.684Z,14.20
2023-03-30T13:08:36.524Z,14.20
2023-03-30T13:11:14.152Z,14.30
2023-03-30T13:13:55.083Z,14.30
2023-03-30T13:16:53.270Z,14.40
2023-03-30T13:19:33.888Z,15.10
2023-03-30T13:22:14.946Z,15.50
2023-03-30T13:24:55.922Z,16.10
2023-03-30T13:27:43.141Z,16.30
2023-03-30T13:30:10.263Z,16.60
2023-03-30T13:32:46.199Z,16.50
2023-03-30T13:35:46.803Z,16.40
2023-03-30T13:38:50.437Z,16.40
2023-03-30T13:41:40.931Z,16.40
2023-03-30T13:44:27.893Z,16.40
2023-03-30T13:47:19.285Z,16.20
2023-03-30T13:50:00.274Z,15.60
2023-03-30T13:52:40.764Z,15.70
2023-03-30T13:55:25.992Z,15.60
2023-03-30T13:57:59.408Z,15.30
2023-03-30T14:00:47.217Z,15.10
2023-03-30T14:03:38.604Z,15.00
2023-03-30T14:06:15.310Z,14.90
2023-03-30T14:08:45.377Z,14.80
2023-03-30T14:11:28.262Z,14.60
2023-03-30T14:13:55.730Z,14.50
2023-03-30T14:16:42.984Z,14.40
2023-03-30T14:19:18.885Z,14.30
2023-03-30T14:21:47.648Z,14.10
2023-03-30T14:24:20.277Z,13.60
2023-03-30T14:26:48.311Z,12.70
2023-03-30T14:29:30.456Z,12.30
2023-03-30T14:34:34.441Z,12.20
2023-03-30T14:37:05.422Z,12.50
2023-03-30T14:39:38.699Z,12.90
2023-03-30T14:42:16.363Z,13.20
2023-03-30T14:44:44.701Z,13.40
2023-03-30T14:47:11.860Z,13.60
2023-03-30T14:49:40.506Z,13.80
2023-03-30T14:52:23.473Z,14.00
2023-03-30T14:55:04.263Z,14.00
2023-03-30T14:57:37.903Z,14.10
2023-03-30T15:00:21.339Z,14.00
2023-03-30T15:02:57.924Z,14.10
2023-03-30T15:05:30.252Z,14.10
2023-03-30T15:07:57.190Z,14.20
2023-03-30T15:10:44.220Z,14.10
2023-03-30T15:13:31.506Z,14.10
2023-03-30T15:16:00.499Z,14.00
2023-03-30T15:18:30.469Z,13.90
2023-03-30T15:20:58.675Z,13.90
2023-03-30T15:23:31.210Z,13.80
2023-03-30T15:26:01.554Z,13.80
2023-03-30T15:28:32.918Z,13.70
2023-03-30T15:30:59.977Z,13.60
2023-03-30T15:33:36.671Z,13.60
2023-03-30T15:36:18.462Z,13.50
2023-03-30T15:38:48.278Z,13.20
2023-03-30T15:41:16.727Z,13.00
2023-03-30T15:43:58.699Z,12.60
2023-03-30T15:46:28.087Z,12.30
2023-03-30T15:48:57.724Z,12.10
2023-03-30T15:51:33.227Z,12.00
2023-03-30T15:54:04.423Z,12.00
2023-03-30T15:56:39.450Z,12.10
2023-03-30T15:59:14.220Z,12.40
2023-03-30T16:01:56.181Z,12.60
2023-03-30T16:04:24.955Z,12.70
2023-03-30T16:06:52.828Z,12.70
2023-03-30T16:09:19.766Z,12.80
2023-03-30T16:11:47.027Z,12.80
2023-03-30T16:14:17.957Z,12.70
2023-03-30T16:16:44.999Z,12.80
2023-03-30T16:19:13.400Z,12.70
2023-03-30T16:21:40.877Z,12.60
2023-03-30T16:24:08.537Z,12.70
2023-03-30T16:26:35.454Z,12.70
2023-03-30T16:29:03.680Z,12.60
2023-03-30T16:31:30.877Z,12.60
2023-03-30T16:33:57.641Z,12.60
2023-03-30T16:36:24.856Z,12.50
2023-03-30T16:38:51.868Z,12.40
2023-03-30T16:41:21.077Z,12.30
2023-03-30T16:43:48.728Z,12.20
2023-03-30T16:46:18.104Z,12.10
2023-03-30T16:48:46.373Z,12.10
2023-03-30T16:51:15.451Z,12.10
2023-03-30T16:53:42.758Z,12.00
2023-03-30T16:56:17.561Z,12.00
2023-03-30T16:58:44.949Z,12.00
2023-03-30T17:01:15.983Z,12.10
2023-03-30T17:03:42.863Z,12.30
2023-03-30T17:06:09.834Z,12.30
2023-03-30T17:08:36.711Z,12.30
2023-03-30T17:11:04.939Z,12.40
2023-03-30T17:13:32.280Z,12.40
2023-03-30T17:16:01.190Z,12.50
2023-03-30T17:18:28.892Z,12.50
2023-03-30T17:21:00.414Z,12.40
2023-03-30T17:23:29.847Z,12.50
2023-03-30T17:25:58.303Z,12.50
2023-03-30T17:28:27.579Z,12.50
2023-03-30T17:30:57.355Z,12.50
2023-03-30T17:33:24.576Z,12.50
2023-03-30T17:36:16.464Z,12.40
2023-03-30T17:38:43.931Z,12.30
2023-03-30T17:41:12.737Z,12.20
2023-03-30T17:43:40.518Z,12.10
2023-03-30T17:46:07.861Z,12.10
2023-03-30T17:48:34.795Z,12.00
2023-03-30T17:51:02.111Z,11.90
2023-03-30T17:53:28.912Z,11.80
2023-03-30T17:55:55.828Z,11.80
2023-03-30T17:58:34.199Z,11.80
2023-03-30T18:01:03.584Z,11.90
2023-03-30T18:03:31.455Z,11.90
2023-03-30T18:06:00.690Z,11.90
2023-03-30T18:08:30.470Z,11.80
2023-03-30T18:10:59.209Z,11.70
2023-03-30T18:13:28.457Z,11.60
2023-03-30T18:15:58.460Z,11.60
2023-03-30T18:18:29.322Z,11.50
2023-03-30T18:21:02.624Z,11.40
2023-03-30T18:23:31.501Z,11.40
2023-03-30T18:25:58.489Z,11.30
2023-03-30T18:28:26.952Z,11.30
2023-03-30T18:30:57.581Z,11.30
2023-03-30T18:33:25.306Z,11.30
2023-03-30T18:35:53.647Z,11.30
2023-03-30T18:38:21.858Z,11.40
2023-03-30T18:40:52.135Z,11.40
2023-03-30T18:43:19.195Z,11.50
2023-03-30T18:45:48.652Z,11.50
2023-03-30T18:48:17.998Z,11.60
2023-03-30T18:50:46.694Z,11.60
2023-03-30T18:53:19.384Z,11.50
2023-03-30T18:55:49.150Z,11.40
2023-03-30T18:58:23.261Z,11.30
2023-03-30T19:00:51.796Z,11.20
2023-03-30T19:03:20.479Z,11.20
2023-03-30T19:05:47.804Z,11.20
2023-03-30T19:08:23.685Z,11.10
2023-03-30T19:10:55.227Z,11.10
2023-03-30T19:13:23.279Z,11.10
2023-03-30T19:15:51.284Z,11.10
2023-03-30T19:18:19.098Z,11.10
2023-03-30T19:20:47.311Z,11.10
2023-03-30T19:23:16.247Z,11.00
2023-03-30T19:25:44.312Z,11.00
2023-03-30T19:28:12.270Z,10.90
2023-03-30T19:30:40.158Z,10.90
2023-03-30T19:33:12.127Z,10.90
2023-03-30T19:35:44.548Z,10.90
2023-03-30T19:38:11.645Z,10.90
2023-03-30T19:40:39.820Z,10.80
2023-03-30T19:43:07.742Z,10.80
2023-03-30T19:45:34.991Z,10.80
2023-03-30T19:48:02.217Z,10.70
2023-03-30T19:50:30.472Z,10.70
2023-03-30T19:52:58.026Z,10.70
2023-03-30T19:55:25.720Z,10.70
2023-03-30T19:57:52.619Z,10.70
2023-03-30T20:00:19.751Z,10.70
2023-03-30T20:02:50.165Z,10.70
2023-03-30T20:05:18.605Z,10.70
2023-03-30T20:07:47.109Z,10.70
2023-03-30T20:10:24.603Z,10.70
2023-03-30T20:12:52.687Z,10.70
2023-03-30T20:15:21.920Z,10.60
2023-03-30T20:17:48.851Z,10.60
2023-03-30T20:20:23.690Z,10.60
2023-03-30T20:22:53.619Z,10.50
2023-03-30T20:25:22.136Z,10.50
2023-03-30T20:27:49.520Z,10.50
2023-03-30T20:30:17.021Z,10.50
2023-03-30T20:32:46.732Z,10.50
2023-03-30T20:35:20.531Z,10.60
2023-03-30T20:37:47.432Z,10.60
2023-03-30T20:40:14.472Z,10.60
2023-03-30T20:42:44.500Z,10.60
2023-03-30T20:45:13.854Z,10.60
2023-03-30T20:47:40.805Z,10.60
2023-03-30T20:50:07.937Z,10.60
2023-03-30T20:52:35.020Z,10.60
2023-03-30T20:55:01.915Z,10.50
2023-03-30T20:57:28.826Z,10.50
2023-03-30T20:59:55.966Z,10.40
2023-03-30T21:02:22.796Z,10.40
2023-03-30T21:04:50.550Z,10.40
2023-03-30T21:07:18.059Z,10.50
2023-03-30T21:09:45.440Z,10.50
2023-03-30T21:12:12.324Z,10.50
2023-03-30T21:14:39.190Z,10.60
2023-03-30T21:17:06.239Z,10.60
2023-03-30T21:19:33.318Z,10.60
2023-03-30T21:22:01.135Z,10.60
2023-03-30T21:24:28.434Z,10.60
2023-03-30T21:26:55.585Z,10.60
2023-03-30T21:29:23.158Z,10.60
2023-03-30T21:31:50.843Z,10.60
2023-03-30T21:34:18.923Z,10.60
2023-03-30T21:36:46.330Z,10.50
2023-03-30T21:39:13.251Z,10.60
2023-03-30T21:41:40.071Z,10.60
2023-03-30T21:44:07.733Z,10.60
2023-03-30T21:46:34.752Z,10.60
2023-03-30T21:49:01.611Z,10.50
2023-03-30T21:51:30.395Z,10.50
2023-03-30T21:53:57.817Z,10.50
2023-03-30T21:56:27.623Z,10.50
2023-03-30T21:58:54.790Z,10.50
2023-03-30T22:01:25.897Z,10.50
2023-03-30T22:03:55.536Z,10.50
2023-03-30T22:06:23.419Z,10.40
2023-03-30T22:08:50.706Z,10.40
2023-03-30T22:11:20.282Z,10.40
2023-03-30T22:13:48.581Z,10.40
2023-03-30T22:16:28.405Z,10.40
2023-03-30T22:18:55.601Z,10.40
2023-03-30T22:21:24.790Z,10.30
2023-03-30T22:23:54.652Z,10.40
2023-03-30T22:26:22.384Z,10.30
2023-03-30T22:28:49.301Z,10.30
2023-03-30T22:31:18.293Z,10.30
2023-03-30T22:33:45.742Z,10.20
2023-03-30T22:36:22.289Z,10.20
2023-03-30T22:38:50.971Z,10.10
2023-03-30T22:41:23.694Z,10.00
2023-03-30T22:43:52.517Z,9.90
2023-03-30T22:46:19.464Z,9.90
2023-03-30T22:48:46.279Z,9.80
2023-03-30T22:51:23.431Z,9.80
2023-03-30T22:53:50.549Z,9.80
2023-03-30T22:56:17.421Z,9.70
2023-03-30T22:58:44.268Z,9.70
2023-03-30T23:01:12.168Z,9.70
2023-03-30T23:03:39.241Z,9.60
2023-03-30T23:06:06.705Z,9.60
2023-03-30T23:08:34.041Z,9.50
2023-03-30T23:11:09.732Z,9.50
2023-03-30T23:13:37.565Z,9.50
2023-03-30T23:16:09.102Z,9.60
2023-03-30T23:18:36.290Z,9.70
2023-03-30T23:21:06.820Z,9.80
2023-03-30T23:23:35.839Z,9.80
2023-03-30T23:26:08.941Z,9.90
2023-03-30T23:28:41.757Z,9.90
2023-03-30T23:31:14.265Z,9.90
2023-03-30T23:33:41.927Z,10.00
2023-03-30T23:36:10.241Z,10.00
2023-03-30T23:38:37.630Z,10.00
2023-03-30T23:41:04.637Z,10.00
2023-03-30T23:43:31.636Z,10.00
2023-03-30T23:45:58.660Z,10.00
2023-03-30T23:48:25.685Z,10.10
2023-03-30T23:50:52.471Z,10.10
2023-03-30T23:53:19.875Z,10.00
2023-03-30T23:55:50.142Z,10.10
2023-03-30T23:58:18.246Z,10.10
